sensor_id;sensor_type;location;lat;lon;timestamp;P1;durP1;ratioP1;P2;durP2;ratioP2
31638;SDS011;18248;51.522;7.020;2023-06-22T00:02:43;7.70;;;4.50;;
31638;SDS011;18248;51.522;7.020;2023-06-22T00:05:43;7.55;;;4.97;;
31638;SDS011;18248;51.522;7.020;2023-06-22T00:08:41;13.10;;;6.68;;
31638;SDS011;18248;51.522;7.020;2023-06-22T00:11:40;8.85;;;5.47;;
31638;SDS011;18248;51.522;7.020;2023-06-22T00:14:38;9.63;;;5.65;;
31638;SDS011;18248;51.522;7.020;2023-06-22T00:17:37;10.45;;;5.93;;
31638;SDS011;18248;51.522;7.020;2023-06-22T00:20:36;11.30;;;5.70;;
31638;SDS011;18248;51.522;7.020;2023-06-22T00:23:36;10.23;;;4.90;;
31638;SDS011;18248;51.522;7.020;2023-06-22T00:26:34;9.73;;;4.75;;
31638;SDS011;18248;51.522;7.020;2023-06-22T00:29:33;9.50;;;5.55;;
31638;SDS011;18248;51.522;7.020;2023-06-22T00:32:33;9.80;;;5.00;;
31638;SDS011;18248;51.522;7.020;2023-06-22T00:35:32;11.57;;;5.63;;
31638;SDS011;18248;51.522;7.020;2023-06-22T00:38:31;6.18;;;4.18;;
31638;SDS011;18248;51.522;7.020;2023-06-22T00:41:29;10.02;;;4.93;;
31638;SDS011;18248;51.522;7.020;2023-06-22T00:44:28;9.35;;;5.90;;
31638;SDS011;18248;51.522;7.020;2023-06-22T00:47:27;10.38;;;6.07;;
31638;SDS011;18248;51.522;7.020;2023-06-22T00:50:26;10.07;;;5.30;;
31638;SDS011;18248;51.522;7.020;2023-06-22T00:53:26;14.88;;;6.82;;
31638;SDS011;18248;51.522;7.020;2023-06-22T00:56:25;9.63;;;5.38;;
31638;SDS011;18248;51.522;7.020;2023-06-22T00:59:26;9.30;;;5.25;;
31638;SDS011;18248;51.522;7.020;2023-06-22T01:02:25;9.27;;;5.55;;
31638;SDS011;18248;51.522;7.020;2023-06-22T01:05:24;9.52;;;5.18;;
31638;SDS011;18248;51.522;7.020;2023-06-22T01:14:35;11.23;;;4.93;;
31638;SDS011;18248;51.522;7.020;2023-06-22T01:17:40;10.77;;;7.03;;
31638;SDS011;18248;51.522;7.020;2023-06-22T01:20:40;8.07;;;6.03;;
31638;SDS011;18248;51.522;7.020;2023-06-22T01:24:01;8.73;;;6.03;;
31638;SDS011;18248;51.522;7.020;2023-06-22T01:27:32;12.57;;;5.65;;
31638;SDS011;18248;51.522;7.020;2023-06-22T01:30:39;12.93;;;6.68;;
31638;SDS011;18248;51.522;7.020;2023-06-22T01:33:39;11.98;;;6.15;;
31638;SDS011;18248;51.522;7.020;2023-06-22T01:36:40;10.48;;;6.63;;
31638;SDS011;18248;51.522;7.020;2023-06-22T01:39:40;10.88;;;5.90;;
31638;SDS011;18248;51.522;7.020;2023-06-22T01:42:41;9.98;;;6.47;;
31638;SDS011;18248;51.522;7.020;2023-06-22T01:45:41;10.40;;;5.38;;
31638;SDS011;18248;51.522;7.020;2023-06-22T01:48:40;10.68;;;6.32;;
31638;SDS011;18248;51.522;7.020;2023-06-22T01:51:39;11.48;;;6.88;;
31638;SDS011;18248;51.522;7.020;2023-06-22T01:54:38;7.90;;;6.22;;
31638;SDS011;18248;51.522;7.020;2023-06-22T01:57:38;11.10;;;6.10;;
31638;SDS011;18248;51.522;7.020;2023-06-22T02:00:38;16.45;;;6.78;;
31638;SDS011;18248;51.522;7.020;2023-06-22T02:03:50;10.60;;;6.85;;
31638;SDS011;18248;51.522;7.020;2023-06-22T02:07:37;13.18;;;6.07;;
31638;SDS011;18248;51.522;7.020;2023-06-22T02:10:44;8.80;;;5.40;;
31638;SDS011;18248;51.522;7.020;2023-06-22T02:13:44;10.13;;;5.88;;
31638;SDS011;18248;51.522;7.020;2023-06-22T02:16:43;9.93;;;5.68;;
31638;SDS011;18248;51.522;7.020;2023-06-22T02:19:42;7.65;;;5.45;;
31638;SDS011;18248;51.522;7.020;2023-06-22T02:22:41;10.05;;;6.10;;
31638;SDS011;18248;51.522;7.020;2023-06-22T02:25:40;9.68;;;6.25;;
31638;SDS011;18248;51.522;7.020;2023-06-22T02:28:42;13.35;;;6.57;;
31638;SDS011;18248;51.522;7.020;2023-06-22T02:31:41;9.02;;;5.18;;
31638;SDS011;18248;51.522;7.020;2023-06-22T02:34:39;9.82;;;6.15;;
31638;SDS011;18248;51.522;7.020;2023-06-22T02:37:38;8.50;;;5.63;;
31638;SDS011;18248;51.522;7.020;2023-06-22T02:40:39;8.77;;;6.00;;
31638;SDS011;18248;51.522;7.020;2023-06-22T02:43:37;8.25;;;5.88;;
31638;SDS011;18248;51.522;7.020;2023-06-22T02:46:36;8.63;;;5.47;;
31638;SDS011;18248;51.522;7.020;2023-06-22T02:49:34;14.40;;;6.13;;
31638;SDS011;18248;51.522;7.020;2023-06-22T02:52:34;7.68;;;5.57;;
31638;SDS011;18248;51.522;7.020;2023-06-22T02:55:34;11.30;;;6.18;;
31638;SDS011;18248;51.522;7.020;2023-06-22T02:58:34;11.77;;;6.93;;
31638;SDS011;18248;51.522;7.020;2023-06-22T03:01:36;11.30;;;6.63;;
31638;SDS011;18248;51.522;7.020;2023-06-22T03:04:38;11.20;;;6.30;;
31638;SDS011;18248;51.522;7.020;2023-06-22T03:07:36;9.07;;;6.75;;
31638;SDS011;18248;51.522;7.020;2023-06-22T03:10:35;14.13;;;8.00;;
31638;SDS011;18248;51.522;7.020;2023-06-22T03:13:33;11.05;;;6.85;;
31638;SDS011;18248;51.522;7.020;2023-06-22T03:16:33;9.50;;;7.03;;
31638;SDS011;18248;51.522;7.020;2023-06-22T03:19:32;12.10;;;8.48;;
31638;SDS011;18248;51.522;7.020;2023-06-22T03:22:30;8.85;;;6.97;;
31638;SDS011;18248;51.522;7.020;2023-06-22T03:25:29;13.35;;;9.23;;
31638;SDS011;18248;51.522;7.020;2023-06-22T03:28:27;11.95;;;7.57;;
31638;SDS011;18248;51.522;7.020;2023-06-22T03:31:26;12.63;;;7.90;;
31638;SDS011;18248;51.522;7.020;2023-06-22T03:34:24;14.15;;;8.93;;
31638;SDS011;18248;51.522;7.020;2023-06-22T03:37:23;14.60;;;8.45;;
31638;SDS011;18248;51.522;7.020;2023-06-22T03:40:22;13.70;;;7.85;;
31638;SDS011;18248;51.522;7.020;2023-06-22T03:43:20;11.00;;;7.63;;
31638;SDS011;18248;51.522;7.020;2023-06-22T03:46:19;11.65;;;9.63;;
31638;SDS011;18248;51.522;7.020;2023-06-22T03:49:19;14.30;;;8.40;;
31638;SDS011;18248;51.522;7.020;2023-06-22T03:52:17;13.68;;;8.43;;
31638;SDS011;18248;51.522;7.020;2023-06-22T03:55:16;13.45;;;8.05;;
31638;SDS011;18248;51.522;7.020;2023-06-22T03:58:14;16.95;;;9.43;;
31638;SDS011;18248;51.522;7.020;2023-06-22T04:01:13;16.20;;;10.13;;
31638;SDS011;18248;51.522;7.020;2023-06-22T04:04:11;14.43;;;8.23;;
31638;SDS011;18248;51.522;7.020;2023-06-22T04:07:10;12.07;;;8.98;;
31638;SDS011;18248;51.522;7.020;2023-06-22T04:10:09;12.55;;;10.35;;
31638;SDS011;18248;51.522;7.020;2023-06-22T04:13:08;13.05;;;9.40;;
31638;SDS011;18248;51.522;7.020;2023-06-22T04:16:08;17.90;;;11.98;;
31638;SDS011;18248;51.522;7.020;2023-06-22T04:19:08;18.13;;;9.82;;
31638;SDS011;18248;51.522;7.020;2023-06-22T04:22:12;18.20;;;12.23;;
31638;SDS011;18248;51.522;7.020;2023-06-22T04:25:10;20.85;;;12.00;;
31638;SDS011;18248;51.522;7.020;2023-06-22T04:28:09;15.20;;;10.88;;
31638;SDS011;18248;51.522;7.020;2023-06-22T04:31:10;17.33;;;11.38;;
31638;SDS011;18248;51.522;7.020;2023-06-22T04:34:09;17.45;;;10.55;;
31638;SDS011;18248;51.522;7.020;2023-06-22T04:37:09;14.48;;;10.95;;
31638;SDS011;18248;51.522;7.020;2023-06-22T04:40:13;14.65;;;10.30;;
31638;SDS011;18248;51.522;7.020;2023-06-22T04:43:12;16.35;;;13.40;;
31638;SDS011;18248;51.522;7.020;2023-06-22T04:46:11;17.20;;;11.85;;
31638;SDS011;18248;51.522;7.020;2023-06-22T04:49:09;20.63;;;11.50;;
31638;SDS011;18248;51.522;7.020;2023-06-22T04:52:08;14.90;;;10.57;;
31638;SDS011;18248;51.522;7.020;2023-06-22T04:55:08;17.85;;;14.20;;
31638;SDS011;18248;51.522;7.020;2023-06-22T04:58:06;17.38;;;13.35;;
31638;SDS011;18248;51.522;7.020;2023-06-22T05:01:05;15.73;;;12.45;;
31638;SDS011;18248;51.522;7.020;2023-06-22T05:04:04;15.63;;;12.15;;
31638;SDS011;18248;51.522;7.020;2023-06-22T05:07:04;14.00;;;10.23;;
31638;SDS011;18248;51.522;7.020;2023-06-22T05:10:05;16.50;;;11.30;;
31638;SDS011;18248;51.522;7.020;2023-06-22T05:13:04;19.65;;;11.38;;
31638;SDS011;18248;51.522;7.020;2023-06-22T05:16:02;17.80;;;12.38;;
31638;SDS011;18248;51.522;7.020;2023-06-22T05:19:01;21.60;;;12.93;;
31638;SDS011;18248;51.522;7.020;2023-06-22T05:22:01;23.85;;;13.77;;
31638;SDS011;18248;51.522;7.020;2023-06-22T05:25:00;18.08;;;11.40;;
31638;SDS011;18248;51.522;7.020;2023-06-22T05:27:59;14.35;;;11.38;;
31638;SDS011;18248;51.522;7.020;2023-06-22T05:30:57;17.45;;;12.13;;
31638;SDS011;18248;51.522;7.020;2023-06-22T05:33:57;19.65;;;12.60;;
31638;SDS011;18248;51.522;7.020;2023-06-22T05:36:57;22.23;;;11.77;;
31638;SDS011;18248;51.522;7.020;2023-06-22T05:40:00;17.90;;;12.70;;
31638;SDS011;18248;51.522;7.020;2023-06-22T05:42:59;17.15;;;11.80;;
31638;SDS011;18248;51.522;7.020;2023-06-22T05:45:59;19.88;;;14.52;;
31638;SDS011;18248;51.522;7.020;2023-06-22T05:48:59;19.30;;;12.98;;
31638;SDS011;18248;51.522;7.020;2023-06-22T05:51:57;19.77;;;12.15;;
31638;SDS011;18248;51.522;7.020;2023-06-22T05:54:57;22.95;;;13.30;;
31638;SDS011;18248;51.522;7.020;2023-06-22T05:57:55;17.30;;;12.73;;
31638;SDS011;18248;51.522;7.020;2023-06-22T06:00:54;17.67;;;11.55;;
31638;SDS011;18248;51.522;7.020;2023-06-22T06:03:52;17.17;;;11.95;;
31638;SDS011;18248;51.522;7.020;2023-06-22T06:06:51;19.70;;;11.90;;
31638;SDS011;18248;51.522;7.020;2023-06-22T06:09:49;17.25;;;12.68;;
31638;SDS011;18248;51.522;7.020;2023-06-22T06:12:48;19.70;;;13.18;;
31638;SDS011;18248;51.522;7.020;2023-06-22T06:15:47;17.27;;;11.20;;
31638;SDS011;18248;51.522;7.020;2023-06-22T06:18:45;21.42;;;11.57;;
31638;SDS011;18248;51.522;7.020;2023-06-22T06:21:44;20.83;;;13.15;;
31638;SDS011;18248;51.522;7.020;2023-06-22T06:24:44;19.90;;;12.10;;
31638;SDS011;18248;51.522;7.020;2023-06-22T06:27:43;16.95;;;12.95;;
31638;SDS011;18248;51.522;7.020;2023-06-22T06:30:43;15.63;;;12.13;;
31638;SDS011;18248;51.522;7.020;2023-06-22T06:33:41;20.90;;;13.38;;
31638;SDS011;18248;51.522;7.020;2023-06-22T06:36:40;22.55;;;13.43;;
31638;SDS011;18248;51.522;7.020;2023-06-22T06:39:38;23.48;;;13.75;;
31638;SDS011;18248;51.522;7.020;2023-06-22T06:42:39;26.67;;;13.38;;
31638;SDS011;18248;51.522;7.020;2023-06-22T06:45:39;21.63;;;14.05;;
31638;SDS011;18248;51.522;7.020;2023-06-22T06:48:38;20.52;;;13.18;;
31638;SDS011;18248;51.522;7.020;2023-06-22T06:51:37;23.58;;;14.68;;
31638;SDS011;18248;51.522;7.020;2023-06-22T06:54:36;24.88;;;15.32;;
31638;SDS011;18248;51.522;7.020;2023-06-22T06:57:34;19.17;;;14.70;;
31638;SDS011;18248;51.522;7.020;2023-06-22T07:00:35;21.65;;;14.05;;
31638;SDS011;18248;51.522;7.020;2023-06-22T07:03:33;18.45;;;14.85;;
31638;SDS011;18248;51.522;7.020;2023-06-22T07:06:32;20.70;;;14.43;;
31638;SDS011;18248;51.522;7.020;2023-06-22T07:09:31;22.55;;;15.00;;
31638;SDS011;18248;51.522;7.020;2023-06-22T07:12:30;22.67;;;15.30;;
31638;SDS011;18248;51.522;7.020;2023-06-22T07:15:28;20.98;;;15.25;;
31638;SDS011;18248;51.522;7.020;2023-06-22T07:18:27;23.20;;;16.00;;
31638;SDS011;18248;51.522;7.020;2023-06-22T07:21:25;24.02;;;13.70;;
31638;SDS011;18248;51.522;7.020;2023-06-22T07:24:24;21.15;;;14.50;;
31638;SDS011;18248;51.522;7.020;2023-06-22T07:27:24;19.73;;;16.08;;
31638;SDS011;18248;51.522;7.020;2023-06-22T07:30:23;21.80;;;14.45;;
31638;SDS011;18248;51.522;7.020;2023-06-22T07:33:21;18.60;;;14.48;;
31638;SDS011;18248;51.522;7.020;2023-06-22T07:36:20;22.98;;;16.25;;
31638;SDS011;18248;51.522;7.020;2023-06-22T07:39:20;22.67;;;16.02;;
31638;SDS011;18248;51.522;7.020;2023-06-22T07:42:26;23.25;;;15.70;;
31638;SDS011;18248;51.522;7.020;2023-06-22T07:45:25;20.02;;;15.15;;
31638;SDS011;18248;51.522;7.020;2023-06-22T07:48:24;19.90;;;14.80;;
31638;SDS011;18248;51.522;7.020;2023-06-22T07:51:22;23.70;;;17.90;;
31638;SDS011;18248;51.522;7.020;2023-06-22T07:54:21;25.77;;;17.75;;
31638;SDS011;18248;51.522;7.020;2023-06-22T07:57:23;18.02;;;13.80;;
31638;SDS011;18248;51.522;7.020;2023-06-22T08:00:29;18.00;;;13.43;;
31638;SDS011;18248;51.522;7.020;2023-06-22T08:03:28;21.02;;;14.40;;
31638;SDS011;18248;51.522;7.020;2023-06-22T08:06:29;20.88;;;15.60;;
31638;SDS011;18248;51.522;7.020;2023-06-22T08:09:29;20.70;;;14.70;;
31638;SDS011;18248;51.522;7.020;2023-06-22T08:12:29;19.40;;;13.90;;
31638;SDS011;18248;51.522;7.020;2023-06-22T08:15:29;23.65;;;16.60;;
31638;SDS011;18248;51.522;7.020;2023-06-22T08:18:27;24.63;;;14.50;;
31638;SDS011;18248;51.522;7.020;2023-06-22T08:21:27;23.88;;;14.02;;
31638;SDS011;18248;51.522;7.020;2023-06-22T08:24:26;23.40;;;15.85;;
31638;SDS011;18248;51.522;7.020;2023-06-22T08:27:28;23.85;;;15.90;;
31638;SDS011;18248;51.522;7.020;2023-06-22T08:30:29;25.63;;;15.68;;
31638;SDS011;18248;51.522;7.020;2023-06-22T08:33:27;21.70;;;14.75;;
31638;SDS011;18248;51.522;7.020;2023-06-22T08:36:26;23.92;;;15.40;;
31638;SDS011;18248;51.522;7.020;2023-06-22T08:39:28;20.77;;;14.30;;
31638;SDS011;18248;51.522;7.020;2023-06-22T08:42:26;20.98;;;15.93;;
31638;SDS011;18248;51.522;7.020;2023-06-22T08:45:25;17.52;;;14.32;;
31638;SDS011;18248;51.522;7.020;2023-06-22T08:48:24;20.83;;;13.07;;
31638;SDS011;18248;51.522;7.020;2023-06-22T08:51:22;17.60;;;14.07;;
31638;SDS011;18248;51.522;7.020;2023-06-22T08:54:21;17.42;;;14.60;;
31638;SDS011;18248;51.522;7.020;2023-06-22T08:57:20;22.98;;;14.70;;
31638;SDS011;18248;51.522;7.020;2023-06-22T09:00:19;16.58;;;12.98;;
31638;SDS011;18248;51.522;7.020;2023-06-22T09:03:18;19.80;;;15.23;;
31638;SDS011;18248;51.522;7.020;2023-06-22T09:06:18;19.75;;;14.30;;
31638;SDS011;18248;51.522;7.020;2023-06-22T09:09:17;21.13;;;15.52;;
31638;SDS011;18248;51.522;7.020;2023-06-22T09:12:17;16.42;;;12.82;;
31638;SDS011;18248;51.522;7.020;2023-06-22T09:15:18;19.38;;;13.73;;
31638;SDS011;18248;51.522;7.020;2023-06-22T09:18:16;25.40;;;15.77;;
31638;SDS011;18248;51.522;7.020;2023-06-22T09:21:14;20.02;;;13.38;;
31638;SDS011;18248;51.522;7.020;2023-06-22T09:24:13;20.70;;;13.73;;
31638;SDS011;18248;51.522;7.020;2023-06-22T09:27:12;22.40;;;13.88;;
31638;SDS011;18248;51.522;7.020;2023-06-22T09:30:11;24.23;;;15.95;;
31638;SDS011;18248;51.522;7.020;2023-06-22T09:33:10;22.40;;;16.70;;
31638;SDS011;18248;51.522;7.020;2023-06-22T09:36:09;21.77;;;15.60;;
31638;SDS011;18248;51.522;7.020;2023-06-22T09:39:07;22.10;;;14.75;;
31638;SDS011;18248;51.522;7.020;2023-06-22T09:42:06;17.73;;;13.50;;
31638;SDS011;18248;51.522;7.020;2023-06-22T09:45:05;16.45;;;13.32;;
31638;SDS011;18248;51.522;7.020;2023-06-22T09:48:04;27.70;;;15.10;;
31638;SDS011;18248;51.522;7.020;2023-06-22T09:51:03;19.55;;;14.32;;
31638;SDS011;18248;51.522;7.020;2023-06-22T09:54:01;22.30;;;15.18;;
31638;SDS011;18248;51.522;7.020;2023-06-22T09:57:00;18.73;;;15.00;;
31638;SDS011;18248;51.522;7.020;2023-06-22T09:59:58;20.17;;;13.98;;
31638;SDS011;18248;51.522;7.020;2023-06-22T10:02:57;19.17;;;15.40;;
31638;SDS011;18248;51.522;7.020;2023-06-22T10:05:56;20.08;;;14.73;;
31638;SDS011;18248;51.522;7.020;2023-06-22T10:08:55;24.77;;;15.20;;
31638;SDS011;18248;51.522;7.020;2023-06-22T10:11:54;22.40;;;15.05;;
31638;SDS011;18248;51.522;7.020;2023-06-22T10:14:53;25.77;;;14.60;;
31638;SDS011;18248;51.522;7.020;2023-06-22T10:17:51;25.70;;;15.43;;
31638;SDS011;18248;51.522;7.020;2023-06-22T10:20:50;17.25;;;13.35;;
31638;SDS011;18248;51.522;7.020;2023-06-22T10:23:50;18.38;;;11.90;;
31638;SDS011;18248;51.522;7.020;2023-06-22T10:26:48;17.35;;;12.60;;
31638;SDS011;18248;51.522;7.020;2023-06-22T10:29:47;14.13;;;11.30;;
31638;SDS011;18248;51.522;7.020;2023-06-22T10:32:45;17.23;;;10.57;;
31638;SDS011;18248;51.522;7.020;2023-06-22T10:35:44;12.02;;;9.85;;
31638;SDS011;18248;51.522;7.020;2023-06-22T10:38:42;16.17;;;10.32;;
31638;SDS011;18248;51.522;7.020;2023-06-22T10:41:41;14.43;;;10.10;;
31638;SDS011;18248;51.522;7.020;2023-06-22T10:44:40;12.18;;;9.48;;
31638;SDS011;18248;51.522;7.020;2023-06-22T10:47:41;17.23;;;9.10;;
31638;SDS011;18248;51.522;7.020;2023-06-22T10:50:46;13.07;;;9.30;;
31638;SDS011;18248;51.522;7.020;2023-06-22T10:53:45;12.60;;;9.25;;
31638;SDS011;18248;51.522;7.020;2023-06-22T10:56:43;10.88;;;8.45;;
31638;SDS011;18248;51.522;7.020;2023-06-22T10:59:42;10.88;;;9.65;;
31638;SDS011;18248;51.522;7.020;2023-06-22T11:02:41;14.93;;;10.55;;
31638;SDS011;18248;51.522;7.020;2023-06-22T11:05:40;12.52;;;10.00;;
31638;SDS011;18248;51.522;7.020;2023-06-22T11:08:39;12.02;;;10.10;;
31638;SDS011;18248;51.522;7.020;2023-06-22T11:11:38;17.65;;;11.25;;
31638;SDS011;18248;51.522;7.020;2023-06-22T11:14:39;13.52;;;10.68;;
31638;SDS011;18248;51.522;7.020;2023-06-22T11:17:37;14.77;;;10.80;;
31638;SDS011;18248;51.522;7.020;2023-06-22T11:20:37;13.57;;;11.55;;
31638;SDS011;18248;51.522;7.020;2023-06-22T11:23:39;12.13;;;10.77;;
31638;SDS011;18248;51.522;7.020;2023-06-22T11:26:37;14.15;;;10.75;;
31638;SDS011;18248;51.522;7.020;2023-06-22T11:29:36;19.60;;;11.23;;
31638;SDS011;18248;51.522;7.020;2023-06-22T11:32:34;14.00;;;11.32;;
31638;SDS011;18248;51.522;7.020;2023-06-22T11:35:33;18.00;;;14.25;;
31638;SDS011;18248;51.522;7.020;2023-06-22T11:38:33;18.48;;;13.30;;
31638;SDS011;18248;51.522;7.020;2023-06-22T11:41:32;16.23;;;11.73;;
31638;SDS011;18248;51.522;7.020;2023-06-22T11:44:30;18.67;;;15.65;;
31638;SDS011;18248;51.522;7.020;2023-06-22T11:47:29;20.10;;;14.82;;
31638;SDS011;18248;51.522;7.020;2023-06-22T11:50:28;22.05;;;16.15;;
31638;SDS011;18248;51.522;7.020;2023-06-22T11:53:28;21.75;;;14.98;;
31638;SDS011;18248;51.522;7.020;2023-06-22T11:56:27;23.08;;;15.98;;
31638;SDS011;18248;51.522;7.020;2023-06-22T11:59:26;21.15;;;16.20;;
31638;SDS011;18248;51.522;7.020;2023-06-22T12:02:24;22.27;;;14.65;;
31638;SDS011;18248;51.522;7.020;2023-06-22T12:05:23;21.08;;;16.65;;
31638;SDS011;18248;51.522;7.020;2023-06-22T12:08:24;25.33;;;17.13;;
31638;SDS011;18248;51.522;7.020;2023-06-22T12:11:22;23.85;;;17.35;;
31638;SDS011;18248;51.522;7.020;2023-06-22T12:14:21;26.42;;;17.20;;
31638;SDS011;18248;51.522;7.020;2023-06-22T12:17:20;28.55;;;20.13;;
31638;SDS011;18248;51.522;7.020;2023-06-22T12:20:18;32.42;;;20.30;;
31638;SDS011;18248;51.522;7.020;2023-06-22T12:23:17;34.85;;;22.08;;
31638;SDS011;18248;51.522;7.020;2023-06-22T12:26:15;24.33;;;19.73;;
31638;SDS011;18248;51.522;7.020;2023-06-22T12:29:14;27.50;;;22.20;;
31638;SDS011;18248;51.522;7.020;2023-06-22T12:32:14;29.83;;;23.45;;
31638;SDS011;18248;51.522;7.020;2023-06-22T12:35:13;29.98;;;21.92;;
31638;SDS011;18248;51.522;7.020;2023-06-22T12:38:11;28.67;;;21.83;;
31638;SDS011;18248;51.522;7.020;2023-06-22T12:41:11;26.50;;;19.30;;
31638;SDS011;18248;51.522;7.020;2023-06-22T12:44:10;27.73;;;21.92;;
31638;SDS011;18248;51.522;7.020;2023-06-22T12:47:08;33.03;;;22.90;;
31638;SDS011;18248;51.522;7.020;2023-06-22T12:50:07;32.38;;;23.92;;
31638;SDS011;18248;51.522;7.020;2023-06-22T12:53:07;27.33;;;23.58;;
31638;SDS011;18248;51.522;7.020;2023-06-22T12:56:07;32.20;;;22.67;;
31638;SDS011;18248;51.522;7.020;2023-06-22T12:59:06;25.40;;;21.20;;
31638;SDS011;18248;51.522;7.020;2023-06-22T13:02:05;31.40;;;23.20;;
31638;SDS011;18248;51.522;7.020;2023-06-22T13:05:04;34.38;;;22.52;;
31638;SDS011;18248;51.522;7.020;2023-06-22T13:08:03;26.60;;;21.08;;
31638;SDS011;18248;51.522;7.020;2023-06-22T13:11:06;33.22;;;24.48;;
31638;SDS011;18248;51.522;7.020;2023-06-22T13:14:05;28.65;;;21.73;;
31638;SDS011;18248;51.522;7.020;2023-06-22T13:17:04;31.90;;;23.40;;
31638;SDS011;18248;51.522;7.020;2023-06-22T13:20:04;29.15;;;20.98;;
31638;SDS011;18248;51.522;7.020;2023-06-22T13:23:03;31.48;;;23.60;;
31638;SDS011;18248;51.522;7.020;2023-06-22T13:26:02;30.48;;;23.63;;
31638;SDS011;18248;51.522;7.020;2023-06-22T13:29:02;30.95;;;24.92;;
31638;SDS011;18248;51.522;7.020;2023-06-22T13:32:00;26.25;;;21.60;;
31638;SDS011;18248;51.522;7.020;2023-06-22T13:34:59;25.80;;;20.65;;
31638;SDS011;18248;51.522;7.020;2023-06-22T13:37:59;27.65;;;21.80;;
31638;SDS011;18248;51.522;7.020;2023-06-22T13:40:57;28.88;;;21.70;;
31638;SDS011;18248;51.522;7.020;2023-06-22T13:43:57;27.00;;;22.00;;
31638;SDS011;18248;51.522;7.020;2023-06-22T13:46:57;27.73;;;22.48;;
31638;SDS011;18248;51.522;7.020;2023-06-22T13:49:56;27.75;;;24.02;;
31638;SDS011;18248;51.522;7.020;2023-06-22T13:52:55;26.35;;;23.25;;
31638;SDS011;18248;51.522;7.020;2023-06-22T13:55:55;27.33;;;22.80;;
31638;SDS011;18248;51.522;7.020;2023-06-22T13:58:55;26.83;;;22.67;;
31638;SDS011;18248;51.522;7.020;2023-06-22T14:01:54;25.25;;;20.92;;
31638;SDS011;18248;51.522;7.020;2023-06-22T14:04:52;26.05;;;21.63;;
31638;SDS011;18248;51.522;7.020;2023-06-22T14:07:51;28.85;;;25.08;;
31638;SDS011;18248;51.522;7.020;2023-06-22T14:10:50;27.55;;;22.60;;
31638;SDS011;18248;51.522;7.020;2023-06-22T14:13:48;26.02;;;21.98;;
31638;SDS011;18248;51.522;7.020;2023-06-22T14:16:47;28.33;;;22.98;;
31638;SDS011;18248;51.522;7.020;2023-06-22T14:19:47;28.08;;;23.00;;
31638;SDS011;18248;51.522;7.020;2023-06-22T14:22:48;32.78;;;25.70;;
31638;SDS011;18248;51.522;7.020;2023-06-22T14:25:48;27.23;;;21.08;;
31638;SDS011;18248;51.522;7.020;2023-06-22T14:28:47;28.77;;;25.10;;
31638;SDS011;18248;51.522;7.020;2023-06-22T14:31:48;26.73;;;22.17;;
31638;SDS011;18248;51.522;7.020;2023-06-22T14:34:47;24.63;;;21.98;;
31638;SDS011;18248;51.522;7.020;2023-06-22T14:37:48;26.20;;;22.73;;
31638;SDS011;18248;51.522;7.020;2023-06-22T14:40:47;30.17;;;24.15;;
31638;SDS011;18248;51.522;7.020;2023-06-22T14:43:46;26.13;;;23.15;;
31638;SDS011;18248;51.522;7.020;2023-06-22T14:46:47;23.60;;;20.20;;
31638;SDS011;18248;51.522;7.020;2023-06-22T14:49:45;28.20;;;23.90;;
31638;SDS011;18248;51.522;7.020;2023-06-22T14:52:44;25.27;;;20.88;;
31638;SDS011;18248;51.522;7.020;2023-06-22T14:55:42;25.80;;;21.52;;
31638;SDS011;18248;51.522;7.020;2023-06-22T14:58:41;26.98;;;21.48;;
31638;SDS011;18248;51.522;7.020;2023-06-22T15:01:43;25.10;;;21.70;;
31638;SDS011;18248;51.522;7.020;2023-06-22T15:04:42;27.80;;;22.67;;
31638;SDS011;18248;51.522;7.020;2023-06-22T15:07:40;25.17;;;22.17;;
31638;SDS011;18248;51.522;7.020;2023-06-22T15:10:39;26.05;;;22.85;;
31638;SDS011;18248;51.522;7.020;2023-06-22T15:13:41;27.25;;;22.85;;
31638;SDS011;18248;51.522;7.020;2023-06-22T15:16:41;23.58;;;20.85;;
31638;SDS011;18248;51.522;7.020;2023-06-22T15:19:40;27.50;;;18.58;;
31638;SDS011;18248;51.522;7.020;2023-06-22T15:22:38;24.30;;;20.67;;
31638;SDS011;18248;51.522;7.020;2023-06-22T15:25:37;25.85;;;20.02;;
31638;SDS011;18248;51.522;7.020;2023-06-22T15:28:36;20.65;;;17.75;;
31638;SDS011;18248;51.522;7.020;2023-06-22T15:31:36;22.23;;;18.70;;
31638;SDS011;18248;51.522;7.020;2023-06-22T15:34:34;25.15;;;20.35;;
31638;SDS011;18248;51.522;7.020;2023-06-22T15:37:33;22.10;;;19.70;;
31638;SDS011;18248;51.522;7.020;2023-06-22T15:40:31;24.27;;;19.52;;
31638;SDS011;18248;51.522;7.020;2023-06-22T15:43:30;19.55;;;17.00;;
31638;SDS011;18248;51.522;7.020;2023-06-22T15:46:28;32.55;;;19.15;;
31638;SDS011;18248;51.522;7.020;2023-06-22T15:49:27;22.92;;;18.45;;
31638;SDS011;18248;51.522;7.020;2023-06-22T15:52:25;22.10;;;18.73;;
31638;SDS011;18248;51.522;7.020;2023-06-22T15:55:24;25.30;;;17.50;;
31638;SDS011;18248;51.522;7.020;2023-06-22T15:58:24;28.90;;;17.55;;
31638;SDS011;18248;51.522;7.020;2023-06-22T16:01:22;21.15;;;16.70;;
31638;SDS011;18248;51.522;7.020;2023-06-22T16:04:22;30.80;;;20.90;;
31638;SDS011;18248;51.522;7.020;2023-06-22T16:07:20;33.35;;;21.77;;
31638;SDS011;18248;51.522;7.020;2023-06-22T16:10:19;27.98;;;19.90;;
31638;SDS011;18248;51.522;7.020;2023-06-22T16:13:17;29.15;;;20.10;;
31638;SDS011;18248;51.522;7.020;2023-06-22T16:16:16;29.48;;;20.02;;
31638;SDS011;18248;51.522;7.020;2023-06-22T16:19:15;25.40;;;17.77;;
31638;SDS011;18248;51.522;7.020;2023-06-22T16:22:14;21.02;;;17.33;;
31638;SDS011;18248;51.522;7.020;2023-06-22T16:25:13;23.70;;;14.65;;
31638;SDS011;18248;51.522;7.020;2023-06-22T16:28:11;21.23;;;15.02;;
31638;SDS011;18248;51.522;7.020;2023-06-22T16:31:10;18.88;;;14.88;;
31638;SDS011;18248;51.522;7.020;2023-06-22T16:34:09;18.63;;;15.18;;
31638;SDS011;18248;51.522;7.020;2023-06-22T16:37:07;21.33;;;15.57;;
31638;SDS011;18248;51.522;7.020;2023-06-22T16:40:06;22.77;;;15.07;;
31638;SDS011;18248;51.522;7.020;2023-06-22T16:43:07;15.43;;;12.63;;
31638;SDS011;18248;51.522;7.020;2023-06-22T16:46:05;16.77;;;11.63;;
31638;SDS011;18248;51.522;7.020;2023-06-22T16:49:04;19.30;;;12.90;;
31638;SDS011;18248;51.522;7.020;2023-06-22T16:52:03;21.00;;;12.07;;
31638;SDS011;18248;51.522;7.020;2023-06-22T16:55:04;19.75;;;13.23;;
31638;SDS011;18248;51.522;7.020;2023-06-22T16:58:06;18.13;;;13.20;;
31638;SDS011;18248;51.522;7.020;2023-06-22T17:01:06;17.23;;;13.00;;
31638;SDS011;18248;51.522;7.020;2023-06-22T17:04:08;16.13;;;12.20;;
31638;SDS011;18248;51.522;7.020;2023-06-22T17:07:09;17.55;;;12.13;;
31638;SDS011;18248;51.522;7.020;2023-06-22T17:10:11;21.83;;;14.32;;
31638;SDS011;18248;51.522;7.020;2023-06-22T17:13:10;22.08;;;13.15;;
31638;SDS011;18248;51.522;7.020;2023-06-22T17:16:09;16.75;;;12.32;;
31638;SDS011;18248;51.522;7.020;2023-06-22T17:19:08;19.15;;;11.93;;
31638;SDS011;18248;51.522;7.020;2023-06-22T17:22:06;14.80;;;10.82;;
31638;SDS011;18248;51.522;7.020;2023-06-22T17:25:08;16.50;;;12.55;;
31638;SDS011;18248;51.522;7.020;2023-06-22T17:28:07;18.15;;;12.60;;
31638;SDS011;18248;51.522;7.020;2023-06-22T17:31:09;21.15;;;13.13;;
31638;SDS011;18248;51.522;7.020;2023-06-22T17:34:11;22.98;;;13.35;;
31638;SDS011;18248;51.522;7.020;2023-06-22T17:37:13;20.13;;;14.63;;
31638;SDS011;18248;51.522;7.020;2023-06-22T17:40:13;20.77;;;16.00;;
31638;SDS011;18248;51.522;7.020;2023-06-22T17:43:18;23.55;;;17.73;;